sensor_id;sensor_type;location;lat;lon;timestamp;temperature;humidity
47576;DHT22;33304;52.456;13.328;2023-05-29T00:02:18;15.60;13.10
47576;DHT22;33304;52.456;13.328;2023-05-29T00:04:45;15.60;13.30
47576;DHT22;33304;52.456;13.328;2023-05-29T00:07:12;15.50;13.50
47576;DHT22;33304;52.456;13.328;2023-05-29T00:09:39;15.50;13.10
47576;DHT22;33304;52.456;13.328;2023-05-29T00:12:07;15.50;13.20
47576;DHT22;33304;52.456;13.328;2023-05-29T00:14:34;15.40;13.30
47576;DHT22;33304;52.456;13.328;2023-05-29T00:17:02;15.50;13.40
47576;DHT22;33304;52.456;13.328;2023-05-29T00:19:30;15.40;13.30
47576;DHT22;33304;52.456;13.328;2023-05-29T00:21:57;15.40;13.10
47576;DHT22;33304;52.456;13.328;2023-05-29T00:24:24;15.40;13.50
47576;DHT22;33304;52.456;13.328;2023-05-29T00:26:51;15.40;13.00
47576;DHT22;33304;52.456;13.328;2023-05-29T00:29:18;15.30;13.00
47576;DHT22;33304;52.456;13.328;2023-05-29T00:31:47;15.20;13.40
47576;DHT22;33304;52.456;13.328;2023-05-29T00:34:15;15.20;13.10
47576;DHT22;33304;52.456;13.328;2023-05-29T00:36:42;15.20;13.10
47576;DHT22;33304;52.456;13.328;2023-05-29T00:39:10;15.10;12.80
47576;DHT22;33304;52.456;13.328;2023-05-29T00:41:38;15.10;13.10
47576;DHT22;33304;52.456;13.328;2023-05-29T00:44:05;15.10;13.60
47576;DHT22;33304;52.456;13.328;2023-05-29T00:46:33;15.00;12.90
47576;DHT22;33304;52.456;13.328;2023-05-29T00:49:00;15.00;13.00
47576;DHT22;33304;52.456;13.328;2023-05-29T00:51:29;15.00;12.90
47576;DHT22;33304;52.456;13.328;2023-05-29T00:53:57;15.10;12.90
47576;DHT22;33304;52.456;13.328;2023-05-29T00:56:25;15.10;13.10
47576;DHT22;33304;52.456;13.328;2023-05-29T00:58:53;15.10;13.20
47576;DHT22;33304;52.456;13.328;2023-05-29T01:01:20;15.10;13.10
47576;DHT22;33304;52.456;13.328;2023-05-29T01:03:49;15.00;13.30
47576;DHT22;33304;52.456;13.328;2023-05-29T01:06:19;15.00;13.30
47576;DHT22;33304;52.456;13.328;2023-05-29T01:08:47;15.00;13.60
47576;DHT22;33304;52.456;13.328;2023-05-29T01:11:23;15.10;13.00
47576;DHT22;33304;52.456;13.328;2023-05-29T01:13:55;14.90;13.40
47576;DHT22;33304;52.456;13.328;2023-05-29T01:16:30;14.90;13.00
47576;DHT22;33304;52.456;13.328;2023-05-29T01:19:05;14.80;13.00
47576;DHT22;33304;52.456;13.328;2023-05-29T01:21:56;14.90;12.90
47576;DHT22;33304;52.456;13.328;2023-05-29T01:24:35;14.80;13.20
47576;DHT22;33304;52.456;13.328;2023-05-29T01:27:08;14.80;13.20
47576;DHT22;33304;52.456;13.328;2023-05-29T01:29:38;14.80;13.20
47576;DHT22;33304;52.456;13.328;2023-05-29T01:32:06;14.70;13.40
47576;DHT22;33304;52.456;13.328;2023-05-29T01:34:34;14.70;13.70
47576;DHT22;33304;52.456;13.328;2023-05-29T01:37:01;14.60;13.70
47576;DHT22;33304;52.456;13.328;2023-05-29T01:39:31;14.60;13.90
47576;DHT22;33304;52.456;13.328;2023-05-29T01:41:59;14.50;13.60
47576;DHT22;33304;52.456;13.328;2023-05-29T01:44:29;14.50;13.90
47576;DHT22;33304;52.456;13.328;2023-05-29T01:46:57;14.60;13.80
47576;DHT22;33304;52.456;13.328;2023-05-29T01:49:26;14.60;14.00
47576;DHT22;33304;52.456;13.328;2023-05-29T01:51:55;14.60;13.70
47576;DHT22;33304;52.456;13.328;2023-05-29T01:54:22;14.50;13.90
47576;DHT22;33304;52.456;13.328;2023-05-29T01:56:50;14.50;14.20
47576;DHT22;33304;52.456;13.328;2023-05-29T01:59:18;14.50;14.50
47576;DHT22;33304;52.456;13.328;2023-05-29T02:01:48;14.40;14.30
47576;DHT22;33304;52.456;13.328;2023-05-29T02:04:16;14.40;14.80
47576;DHT22;33304;52.456;13.328;2023-05-29T02:06:43;14.40;14.30
47576;DHT22;33304;52.456;13.328;2023-05-29T02:09:10;14.50;14.30
47576;DHT22;33304;52.456;13.328;2023-05-29T02:11:38;14.50;14.30
47576;DHT22;33304;52.456;13.328;2023-05-29T02:14:10;14.40;15.10
47576;DHT22;33304;52.456;13.328;2023-05-29T02:16:37;14.30;14.90
47576;DHT22;33304;52.456;13.328;2023-05-29T02:19:08;14.30;15.40
47576;DHT22;33304;52.456;13.328;2023-05-29T02:21:38;14.30;15.40
47576;DHT22;33304;52.456;13.328;2023-05-29T02:24:06;14.20;15.30
47576;DHT22;33304;52.456;13.328;2023-05-29T02:26:34;14.30;15.40
47576;DHT22;33304;52.456;13.328;2023-05-29T02:29:02;14.40;15.40
47576;DHT22;33304;52.456;13.328;2023-05-29T02:31:31;14.30;15.40
47576;DHT22;33304;52.456;13.328;2023-05-29T02:33:58;14.20;15.30
47576;DHT22;33304;52.456;13.328;2023-05-29T02:36:27;14.20;15.30
47576;DHT22;33304;52.456;13.328;2023-05-29T02:38:54;14.10;15.20
47576;DHT22;33304;52.456;13.328;2023-05-29T02:41:21;14.20;15.30
47576;DHT22;33304;52.456;13.328;2023-05-29T02:43:50;14.20;15.30
47576;DHT22;33304;52.456;13.328;2023-05-29T02:46:17;14.20;15.30
47576;DHT22;33304;52.456;13.328;2023-05-29T02:48:44;14.10;15.20
47576;DHT22;33304;52.456;13.328;2023-05-29T02:51:12;14.00;16.00
47576;DHT22;33304;52.456;13.328;2023-05-29T02:53:40;13.90;15.60
47576;DHT22;33304;52.456;13.328;2023-05-29T02:56:07;14.00;15.80
47576;DHT22;33304;52.456;13.328;2023-05-29T02:58:35;14.10;15.20
47576;DHT22;33304;52.456;13.328;2023-05-29T03:01:02;14.00;15.90
47576;DHT22;33304;52.456;13.328;2023-05-29T03:03:29;14.00;16.30
47576;DHT22;33304;52.456;13.328;2023-05-29T03:05:58;13.90;16.50
47576;DHT22;33304;52.456;13.328;2023-05-29T03:08:26;13.90;16.60
47576;DHT22;33304;52.456;13.328;2023-05-29T03:10:55;13.90;16.80
47576;DHT22;33304;52.456;13.328;2023-05-29T03:13:22;13.80;17.00
47576;DHT22;33304;52.456;13.328;2023-05-29T03:15:56;13.80;17.10
47576;DHT22;33304;52.456;13.328;2023-05-29T03:18:24;13.80;17.50
47576;DHT22;33304;52.456;13.328;2023-05-29T03:20:51;13.80;17.50
47576;DHT22;33304;52.456;13.328;2023-05-29T03:23:18;13.80;17.90
47576;DHT22;33304;52.456;13.328;2023-05-29T03:25:46;13.80;18.00
47576;DHT22;33304;52.456;13.328;2023-05-29T03:28:15;13.70;18.80
47576;DHT22;33304;52.456;13.328;2023-05-29T03:30:42;13.70;18.20
47576;DHT22;33304;52.456;13.328;2023-05-29T03:33:12;13.70;18.20
47576;DHT22;33304;52.456;13.328;2023-05-29T03:35:58;13.70;18.10
47576;DHT22;33304;52.456;13.328;2023-05-29T03:38:26;13.80;18.40
47576;DHT22;33304;52.456;13.328;2023-05-29T03:40:57;13.80;18.40
47576;DHT22;33304;52.456;13.328;2023-05-29T03:43:25;13.80;18.40
47576;DHT22;33304;52.456;13.328;2023-05-29T03:45:53;13.80;18.80
47576;DHT22;33304;52.456;13.328;2023-05-29T03:48:20;13.70;18.60
47576;DHT22;33304;52.456;13.328;2023-05-29T03:50:49;13.80;18.60
47576;DHT22;33304;52.456;13.328;2023-05-29T03:53:22;13.80;18.90
47576;DHT22;33304;52.456;13.328;2023-05-29T03:55:49;13.80;18.50
47576;DHT22;33304;52.456;13.328;2023-05-29T03:58:16;13.80;18.90
47576;DHT22;33304;52.456;13.328;2023-05-29T04:00:45;13.80;18.60
47576;DHT22;33304;52.456;13.328;2023-05-29T04:03:14;13.80;18.80
47576;DHT22;33304;52.456;13.328;2023-05-29T04:05:41;13.70;18.60
47576;DHT22;33304;52.456;13.328;2023-05-29T04:08:09;13.80;18.90
47576;DHT22;33304;52.456;13.328;2023-05-29T04:10:36;13.80;18.70
47576;DHT22;33304;52.456;13.328;2023-05-29T04:13:05;13.80;18.60
47576;DHT22;33304;52.456;13.328;2023-05-29T04:15:32;13.90;18.90
47576;DHT22;33304;52.456;13.328;2023-05-29T04:18:01;13.90;18.70
47576;DHT22;33304;52.456;13.328;2023-05-29T04:20:28;14.00;18.60
47576;DHT22;33304;52.456;13.328;2023-05-29T04:22:57;14.00;18.50
47576;DHT22;33304;52.456;13.328;2023-05-29T04:25:24;13.90;18.20
47576;DHT22;33304;52.456;13.328;2023-05-29T04:27:51;14.10;18.20
47576;DHT22;33304;52.456;13.328;2023-05-29T04:30:19;14.10;18.20
47576;DHT22;33304;52.456;13.328;2023-05-29T04:32:48;14.10;17.80
47576;DHT22;33304;52.456;13.328;2023-05-29T04:35:19;14.20;17.80
47576;DHT22;33304;52.456;13.328;2023-05-29T04:37:55;14.20;17.60
47576;DHT22;33304;52.456;13.328;2023-05-29T04:40:25;14.30;17.60
47576;DHT22;33304;52.456;13.328;2023-05-29T04:42:53;14.30;17.20
47576;DHT22;33304;52.456;13.328;2023-05-29T04:45:22;14.40;17.10
47576;DHT22;33304;52.456;13.328;2023-05-29T04:47:49;14.50;16.90
47576;DHT22;33304;52.456;13.328;2023-05-29T04:50:21;14.50;16.80
47576;DHT22;33304;52.456;13.328;2023-05-29T04:52:49;14.60;16.70
47576;DHT22;33304;52.456;13.328;2023-05-29T04:55:16;14.70;16.20
47576;DHT22;33304;52.456;13.328;2023-05-29T04:57:43;14.80;15.80
47576;DHT22;33304;52.456;13.328;2023-05-29T05:00:14;14.90;15.80
47576;DHT22;33304;52.456;13.328;2023-05-29T05:02:45;14.90;15.80
47576;DHT22;33304;52.456;13.328;2023-05-29T05:05:13;15.00;15.90
47576;DHT22;33304;52.456;13.328;2023-05-29T05:07:42;15.10;15.90
47576;DHT22;33304;52.456;13.328;2023-05-29T05:10:10;15.20;16.00
47576;DHT22;33304;52.456;13.328;2023-05-29T05:12:37;15.20;16.00
47576;DHT22;33304;52.456;13.328;2023-05-29T05:15:06;15.40;15.40
47576;DHT22;33304;52.456;13.328;2023-05-29T05:17:34;15.50;15.10
47576;DHT22;33304;52.456;13.328;2023-05-29T05:20:01;15.60;14.50
47576;DHT22;33304;52.456;13.328;2023-05-29T05:22:29;15.70;15.30
47576;DHT22;33304;52.456;13.328;2023-05-29T05:24:58;15.60;14.60
47576;DHT22;33304;52.456;13.328;2023-05-29T05:27:26;15.70;14.50
47576;DHT22;33304;52.456;13.328;2023-05-29T05:29:53;15.70;14.40
47576;DHT22;33304;52.456;13.328;2023-05-29T05:32:21;15.70;14.00
47576;DHT22;33304;52.456;13.328;2023-05-29T05:34:55;15.80;13.80
47576;DHT22;33304;52.456;13.328;2023-05-29T05:37:23;15.80;13.90
47576;DHT22;33304;52.456;13.328;2023-05-29T05:39:50;15.90;13.70
47576;DHT22;33304;52.456;13.328;2023-05-29T05:42:21;16.00;13.90
47576;DHT22;33304;52.456;13.328;2023-05-29T05:44:53;16.00;13.30
47576;DHT22;33304;52.456;13.328;2023-05-29T05:47:20;16.10;12.80
47576;DHT22;33304;52.456;13.328;2023-05-29T05:49:48;16.10;12.60
47576;DHT22;33304;52.456;13.328;2023-05-29T05:52:26;16.20;11.60
47576;DHT22;33304;52.456;13.328;2023-05-29T05:54:56;16.20;12.20
47576;DHT22;33304;52.456;13.328;2023-05-29T05:57:25;16.30;11.70
47576;DHT22;33304;52.456;13.328;2023-05-29T05:59:53;16.40;11.10
47576;DHT22;33304;52.456;13.328;2023-05-29T06:02:22;16.60;11.50
47576;DHT22;33304;52.456;13.328;2023-05-29T06:04:50;16.70;10.40
47576;DHT22;33304;52.456;13.328;2023-05-29T06:07:17;16.90;10.10
47576;DHT22;33304;52.456;13.328;2023-05-29T06:09:45;17.30;9.90
47576;DHT22;33304;52.456;13.328;2023-05-29T06:12:12;17.70;8.30
47576;DHT22;33304;52.456;13.328;2023-05-29T06:14:47;18.20;8.10
47576;DHT22;33304;52.456;13.328;2023-05-29T06:17:15;18.80;6.90
47576;DHT22;33304;52.456;13.328;2023-05-29T06:19:43;19.10;5.10
47576;DHT22;33304;52.456;13.328;2023-05-29T06:22:10;19.30;4.40
47576;DHT22;33304;52.456;13.328;2023-05-29T06:24:38;19.50;3.30
47576;DHT22;33304;52.456;13.328;2023-05-29T06:27:05;19.80;2.90
47576;DHT22;33304;52.456;13.328;2023-05-29T06:29:34;20.10;2.90
47576;DHT22;33304;52.456;13.328;2023-05-29T06:32:02;20.60;2.70
47576;DHT22;33304;52.456;13.328;2023-05-29T06:34:29;20.80;1.90
47576;DHT22;33304;52.456;13.328;2023-05-29T06:36:56;20.90;1.00
47576;DHT22;33304;52.456;13.328;2023-05-29T06:39:23;21.10;1.00
47576;DHT22;33304;52.456;13.328;2023-05-29T06:41:51;21.20;1.00
47576;DHT22;33304;52.456;13.328;2023-05-29T06:44:18;21.20;1.00
47576;DHT22;33304;52.456;13.328;2023-05-29T06:46:45;21.00;1.00
47576;DHT22;33304;52.456;13.328;2023-05-29T06:49:14;20.70;1.00
47576;DHT22;33304;52.456;13.328;2023-05-29T06:51:41;21.00;1.00
47576;DHT22;33304;52.456;13.328;2023-05-29T06:54:29;21.10;1.00
47576;DHT22;33304;52.456;13.328;2023-05-29T06:56:56;21.20;1.00
47576;DHT22;33304;52.456;13.328;2023-05-29T06:59:23;21.00;1.00
47576;DHT22;33304;52.456;13.328;2023-05-29T07:01:51;20.80;1.00
47576;DHT22;33304;52.456;13.328;2023-05-29T07:04:20;20.50;1.10
47576;DHT22;33304;52.456;13.328;2023-05-29T07:06:47;20.30;1.00
47576;DHT22;33304;52.456;13.328;2023-05-29T07:09:14;20.30;1.00
47576;DHT22;33304;52.456;13.328;2023-05-29T07:11:41;20.30;1.00
47576;DHT22;33304;52.456;13.328;2023-05-29T07:14:08;20.30;1.00
47576;DHT22;33304;52.456;13.328;2023-05-29T07:16:36;20.10;1.00
47576;DHT22;33304;52.456;13.328;2023-05-29T07:19:05;20.00;1.00
47576;DHT22;33304;52.456;13.328;2023-05-29T07:21:37;20.10;1.00
47576;DHT22;33304;52.456;13.328;2023-05-29T07:24:06;20.00;1.00
47576;DHT22;33304;52.456;13.328;2023-05-29T07:26:35;20.00;1.00
47576;DHT22;33304;52.456;13.328;2023-05-29T07:29:03;19.90;1.00
47576;DHT22;33304;52.456;13.328;2023-05-29T07:31:30;19.70;1.00
47576;DHT22;33304;52.456;13.328;2023-05-29T07:33:58;19.60;1.00
47576;DHT22;33304;52.456;13.328;2023-05-29T07:36:30;19.60;1.00
47576;DHT22;33304;52.456;13.328;2023-05-29T07:39:00;19.50;1.00
47576;DHT22;33304;52.456;13.328;2023-05-29T07:41:27;19.60;2.30
47576;DHT22;33304;52.456;13.328;2023-05-29T07:43:55;19.80;2.00
47576;DHT22;33304;52.456;13.328;2023-05-29T07:46:22;19.90;1.00
47576;DHT22;33304;52.456;13.328;2023-05-29T07:48:54;19.90;1.00
47576;DHT22;33304;52.456;13.328;2023-05-29T07:51:21;19.80;1.00
47576;DHT22;33304;52.456;13.328;2023-05-29T07:53:50;19.70;1.00
47576;DHT22;33304;52.456;13.328;2023-05-29T07:56:19;19.80;1.00
47576;DHT22;33304;52.456;13.328;2023-05-29T07:58:48;20.00;1.00
47576;DHT22;33304;52.456;13.328;2023-05-29T08:01:15;20.00;1.60
47576;DHT22;33304;52.456;13.328;2023-05-29T08:03:42;20.00;1.00
47576;DHT22;33304;52.456;13.328;2023-05-29T08:06:16;20.10;1.00
47576;DHT22;33304;52.456;13.328;2023-05-29T08:08:44;20.00;1.00
47576;DHT22;33304;52.456;13.328;2023-05-29T08:11:11;20.00;1.10
47576;DHT22;33304;52.456;13.328;2023-05-29T08:13:41;20.20;1.00
47576;DHT22;33304;52.456;13.328;2023-05-29T08:16:08;20.40;1.00
47576;DHT22;33304;52.456;13.328;2023-05-29T08:18:36;20.50;1.00
47576;DHT22;33304;52.456;13.328;2023-05-29T08:21:04;20.60;1.00
47576;DHT22;33304;52.456;13.328;2023-05-29T08:23:31;20.60;1.00
47576;DHT22;33304;52.456;13.328;2023-05-29T08:25:58;20.60;2.20
47576;DHT22;33304;52.456;13.328;2023-05-29T08:28:25;20.60;1.00
47576;DHT22;33304;52.456;13.328;2023-05-29T08:30:54;20.50;1.00
47576;DHT22;33304;52.456;13.328;2023-05-29T08:33:21;20.50;1.00
47576;DHT22;33304;52.456;13.328;2023-05-29T08:35:48;20.30;1.00
47576;DHT22;33304;52.456;13.328;2023-05-29T08:38:15;20.20;1.00
47576;DHT22;33304;52.456;13.328;2023-05-29T08:40:43;20.20;1.00
47576;DHT22;33304;52.456;13.328;2023-05-29T08:43:13;20.30;1.00
47576;DHT22;33304;52.456;13.328;2023-05-29T08:45:43;20.50;1.00
47576;DHT22;33304;52.456;13.328;2023-05-29T08:48:12;20.60;1.00
47576;DHT22;33304;52.456;13.328;2023-05-29T08:50:44;20.50;1.00
47576;DHT22;33304;52.456;13.328;2023-05-29T08:53:13;20.70;1.00
47576;DHT22;33304;52.456;13.328;2023-05-29T08:55:41;20.80;1.40
47576;DHT22;33304;52.456;13.328;2023-05-29T08:58:08;20.80;1.00
47576;DHT22;33304;52.456;13.328;2023-05-29T09:00:36;20.90;1.00
47576;DHT22;33304;52.456;13.328;2023-05-29T09:03:03;21.00;1.00
47576;DHT22;33304;52.456;13.328;2023-05-29T09:05:31;21.10;1.00
47576;DHT22;33304;52.456;13.328;2023-05-29T09:07:59;21.10;1.00
47576;DHT22;33304;52.456;13.328;2023-05-29T09:10:29;21.20;1.00
47576;DHT22;33304;52.456;13.328;2023-05-29T09:12:56;21.20;1.00
47576;DHT22;33304;52.456;13.328;2023-05-29T09:15:24;21.10;1.00
47576;DHT22;33304;52.456;13.328;2023-05-29T09:17:52;21.30;1.00
47576;DHT22;33304;52.456;13.328;2023-05-29T09:20:20;21.30;1.00
47576;DHT22;33304;52.456;13.328;2023-05-29T09:22:55;21.30;1.00
47576;DHT22;33304;52.456;13.328;2023-05-29T09:25:23;21.30;2.10
47576;DHT22;33304;52.456;13.328;2023-05-29T09:27:52;21.30;1.00
47576;DHT22;33304;52.456;13.328;2023-05-29T09:30:34;21.30;1.00
47576;DHT22;33304;52.456;13.328;2023-05-29T09:33:02;21.10;1.00
47576;DHT22;33304;52.456;13.328;2023-05-29T09:35:34;21.20;1.00
47576;DHT22;33304;52.456;13.328;2023-05-29T09:38:02;21.30;1.00
47576;DHT22;33304;52.456;13.328;2023-05-29T09:40:30;21.20;1.00
47576;DHT22;33304;52.456;13.328;2023-05-29T09:43:05;21.20;1.00
47576;DHT22;33304;52.456;13.328;2023-05-29T09:45:36;21.50;1.00
47576;DHT22;33304;52.456;13.328;2023-05-29T09:48:05;21.60;1.00
47576;DHT22;33304;52.456;13.328;2023-05-29T09:50:33;21.90;1.00
47576;DHT22;33304;52.456;13.328;2023-05-29T09:53:01;22.10;1.00
47576;DHT22;33304;52.456;13.328;2023-05-29T09:55:31;22.30;1.00
47576;DHT22;33304;52.456;13.328;2023-05-29T09:57:59;22.30;1.00
47576;DHT22;33304;52.456;13.328;2023-05-29T10:00:28;22.20;1.00
47576;DHT22;33304;52.456;13.328;2023-05-29T10:02:56;22.20;1.00
47576;DHT22;33304;52.456;13.328;2023-05-29T10:05:24;22.30;1.00
47576;DHT22;33304;52.456;13.328;2023-05-29T10:07:53;22.40;1.00
47576;DHT22;33304;52.456;13.328;2023-05-29T10:10:21;22.30;1.00
47576;DHT22;33304;52.456;13.328;2023-05-29T10:12:53;22.20;1.00
47576;DHT22;33304;52.456;13.328;2023-05-29T10:15:23;22.00;1.00
47576;DHT22;33304;52.456;13.328;2023-05-29T10:18:00;22.00;1.00
47576;DHT22;33304;52.456;13.328;2023-05-29T10:20:31;22.00;1.00
47576;DHT22;33304;52.456;13.328;2023-05-29T10:23:00;21.90;1.00
47576;DHT22;33304;52.456;13.328;2023-05-29T10:25:31;21.80;1.00
47576;DHT22;33304;52.456;13.328;2023-05-29T10:28:00;21.70;1.00
47576;DHT22;33304;52.456;13.328;2023-05-29T10:30:33;22.00;1.00
47576;DHT22;33304;52.456;13.328;2023-05-29T10:33:16;22.10;1.00
47576;DHT22;33304;52.456;13.328;2023-05-29T10:35:51;22.30;1.00
47576;DHT22;33304;52.456;13.328;2023-05-29T10:38:20;22.60;1.00
47576;DHT22;33304;52.456;13.328;2023-05-29T10:40:47;22.70;1.00
47576;DHT22;33304;52.456;13.328;2023-05-29T10:43:32;22.40;1.00
47576;DHT22;33304;52.456;13.328;2023-05-29T10:46:00;22.20;1.00
47576;DHT22;33304;52.456;13.328;2023-05-29T10:48:41;22.30;1.00
47576;DHT22;33304;52.456;13.328;2023-05-29T10:51:24;22.40;1.00
47576;DHT22;33304;52.456;13.328;2023-05-29T10:53:52;22.80;1.00
47576;DHT22;33304;52.456;13.328;2023-05-29T10:56:23;22.90;1.00
47576;DHT22;33304;52.456;13.328;2023-05-29T10:58:57;22.70;1.00
47576;DHT22;33304;52.456;13.328;2023-05-29T11:01:24;22.40;1.00
47576;DHT22;33304;52.456;13.328;2023-05-29T11:04:00;22.30;1.00
47576;DHT22;33304;52.456;13.328;2023-05-29T11:06:48;22.30;1.00
47576;DHT22;33304;52.456;13.328;2023-05-29T11:09:30;22.30;1.00
47576;DHT22;33304;52.456;13.328;2023-05-29T11:12:14;22.40;1.00
47576;DHT22;33304;52.456;13.328;2023-05-29T11:14:55;22.50;1.00
47576;DHT22;33304;52.456;13.328;2023-05-29T11:17:30;22.30;1.00
47576;DHT22;33304;52.456;13.328;2023-05-29T11:20:00;22.20;1.00
47576;DHT22;33304;52.456;13.328;2023-05-29T11:22:34;22.10;1.00
47576;DHT22;33304;52.456;13.328;2023-05-29T11:25:09;22.50;1.00
47576;DHT22;33304;52.456;13.328;2023-05-29T11:27:37;23.10;1.00
47576;DHT22;33304;52.456;13.328;2023-05-29T11:30:06;23.50;1.00
47576;DHT22;33304;52.456;13.328;2023-05-29T11:32:36;23.30;1.00
47576;DHT22;33304;52.456;13.328;2023-05-29T11:35:07;22.90;1.00
47576;DHT22;33304;52.456;13.328;2023-05-29T11:37:35;22.50;1.00
47576;DHT22;33304;52.456;13.328;2023-05-29T11:40:03;22.60;1.00
47576;DHT22;33304;52.456;13.328;2023-05-29T11:42:31;22.70;1.00
47576;DHT22;33304;52.456;13.328;2023-05-29T11:45:11;22.80;1.00
47576;DHT22;33304;52.456;13.328;2023-05-29T11:48:01;23.10;1.00
47576;DHT22;33304;52.456;13.328;2023-05-29T11:50:29;23.20;1.00
47576;DHT22;33304;52.456;13.328;2023-05-29T11:52:58;23.20;1.00
47576;DHT22;33304;52.456;13.328;2023-05-29T11:55:27;23.50;1.00
47576;DHT22;33304;52.456;13.328;2023-05-29T11:57:56;23.80;1.00
47576;DHT22;33304;52.456;13.328;2023-05-29T12:00:26;24.10;1.00
47576;DHT22;33304;52.456;13.328;2023-05-29T12:02:57;24.50;1.00
47576;DHT22;33304;52.456;13.328;2023-05-29T12:05:29;24.20;1.00
47576;DHT22;33304;52.456;13.328;2023-05-29T12:07:57;24.30;1.00
47576;DHT22;33304;52.456;13.328;2023-05-29T12:10:27;24.40;1.00
47576;DHT22;33304;52.456;13.328;2023-05-29T12:12:56;24.60;1.00
47576;DHT22;33304;52.456;13.328;2023-05-29T12:15:25;24.80;1.00
47576;DHT22;33304;52.456;13.328;2023-05-29T12:17:53;24.20;1.00
47576;DHT22;33304;52.456;13.328;2023-05-29T12:20:23;24.10;1.00
47576;DHT22;33304;52.456;13.328;2023-05-29T12:22:53;24.30;1.00
47576;DHT22;33304;52.456;13.328;2023-05-29T12:25:29;24.80;1.00
47576;DHT22;33304;52.456;13.328;2023-05-29T12:27:57;24.60;1.00
47576;DHT22;33304;52.456;13.328;2023-05-29T12:34:12;24.40;1.00
47576;DHT22;33304;52.456;13.328;2023-05-29T12:36:41;25.40;1.00
47576;DHT22;33304;52.456;13.328;2023-05-29T12:39:09;26.20;1.00
47576;DHT22;33304;52.456;13.328;2023-05-29T12:41:37;26.90;1.00
47576;DHT22;33304;52.456;13.328;2023-05-29T12:44:06;27.10;1.00
47576;DHT22;33304;52.456;13.328;2023-05-29T12:46:40;27.10;1.00
47576;DHT22;33304;52.456;13.328;2023-05-29T12:49:12;27.20;1.00
47576;DHT22;33304;52.456;13.328;2023-05-29T12:51:40;27.00;1.00
47576;DHT22;33304;52.456;13.328;2023-05-29T12:54:07;26.90;1.00
47576;DHT22;33304;52.456;13.328;2023-05-29T12:56:34;26.90;1.00
47576;DHT22;33304;52.456;13.328;2023-05-29T12:59:02;27.10;1.00
47576;DHT22;33304;52.456;13.328;2023-05-29T13:01:29;26.90;1.00
47576;DHT22;33304;52.456;13.328;2023-05-29T13:03:57;26.90;1.00
47576;DHT22;33304;52.456;13.328;2023-05-29T13:06:24;26.80;1.00
47576;DHT22;33304;52.456;13.328;2023-05-29T13:08:52;26.30;1.00
47576;DHT22;33304;52.456;13.328;2023-05-29T13:11:19;25.80;1.00
47576;DHT22;33304;52.456;13.328;2023-05-29T13:13:48;25.90;1.00
47576;DHT22;33304;52.456;13.328;2023-05-29T13:16:15;25.70;1.00
47576;DHT22;33304;52.456;13.328;2023-05-29T13:18:43;25.30;1.00
47576;DHT22;33304;52.456;13.328;2023-05-29T13:21:12;25.30;1.00
47576;DHT22;33304;52.456;13.328;2023-05-29T13:23:39;25.70;1.00
47576;DHT22;33304;52.456;13.328;2023-05-29T13:26:06;26.60;1.00
47576;DHT22;33304;52.456;13.328;2023-05-29T13:28:33;26.70;1.00
47576;DHT22;33304;52.456;13.328;2023-05-29T13:31:03;27.20;1.00
47576;DHT22;33304;52.456;13.328;2023-05-29T13:33:30;27.10;1.00
47576;DHT22;33304;52.456;13.328;2023-05-29T13:35:57;26.60;1.00
47576;DHT22;33304;52.456;13.328;2023-05-29T13:38:26;26.60;1.00
47576;DHT22;33304;52.456;13.328;2023-05-29T13:40:53;26.30;1.00
47576;DHT22;33304;52.456;13.328;2023-05-29T13:43:20;26.40;1.00
47576;DHT22;33304;52.456;13.328;2023-05-29T13:45:47;26.30;1.00
47576;DHT22;33304;52.456;13.328;2023-05-29T13:48:14;26.10;1.00
47576;DHT22;33304;52.456;13.328;2023-05-29T13:50:41;26.70;1.00
47576;DHT22;33304;52.456;13.328;2023-05-29T13:53:08;27.40;1.00
47576;DHT22;33304;52.456;13.328;2023-05-29T13:55:36;27.70;1.00
47576;DHT22;33304;52.456;13.328;2023-05-29T13:58:03;28.60;1.00
47576;DHT22;33304;52.456;13.328;2023-05-29T14:00:31;28.50;1.00
47576;DHT22;33304;52.456;13.328;2023-05-29T14:02:58;28.40;1.00
47576;DHT22;33304;52.456;13.328;2023-05-29T14:05:25;28.80;1.00
47576;DHT22;33304;52.456;13.328;2023-05-29T14:07:52;28.20;1.00
47576;DHT22;33304;52.456;13.328;2023-05-29T14:10:19;27.90;1.00
47576;DHT22;33304;52.456;13.328;2023-05-29T14:12:48;27.60;1.00
47576;DHT22;33304;52.456;13.328;2023-05-29T14:15:15;27.70;1.00
47576;DHT22;33304;52.456;13.328;2023-05-29T14:17:42;27.00;1.00
47576;DHT22;33304;52.456;13.328;2023-05-29T14:20:10;26.30;1.00
47576;DHT22;33304;52.456;13.328;2023-05-29T14:22:37;26.00;1.00
47576;DHT22;33304;52.456;13.328;2023-05-29T14:25:04;25.60;1.00
47576;DHT22;33304;52.456;13.328;2023-05-29T14:27:31;25.20;1.00
47576;DHT22;33304;52.456;13.328;2023-05-29T14:30:03;25.00;1.00
47576;DHT22;33304;52.456;13.328;2023-05-29T14:32:30;24.90;1.00
47576;DHT22;33304;52.456;13.328;2023-05-29T14:34:57;25.30;1.00
47576;DHT22;33304;52.456;13.328;2023-05-29T14:37:24;25.80;1.00
47576;DHT22;33304;52.456;13.328;2023-05-29T14:39:51;26.20;1.00
47576;DHT22;33304;52.456;13.328;2023-05-29T14:42:19;26.10;1.00
47576;DHT22;33304;52.456;13.328;2023-05-29T14:44:46;26.70;1.00
47576;DHT22;33304;52.456;13.328;2023-05-29T14:47:15;27.70;1.00
47576;DHT22;33304;52.456;13.328;2023-05-29T14:49:44;29.00;1.00
47576;DHT22;33304;52.456;13.328;2023-05-29T14:52:11;29.20;1.00
47576;DHT22;33304;52.456;13.328;2023-05-29T14:54:38;29.40;1.00
47576;DHT22;33304;52.456;13.328;2023-05-29T14:57:11;29.60;1.00
47576;DHT22;33304;52.456;13.328;2023-05-29T14:59:38;29.90;1.00
47576;DHT22;33304;52.456;13.328;2023-05-29T15:02:05;30.00;1.00
47576;DHT22;33304;52.456;13.328;2023-05-29T15:04:33;30.40;1.00
47576;DHT22;33304;52.456;13.328;2023-05-29T15:07:01;30.50;1.00
47576;DHT22;33304;52.456;13.328;2023-05-29T15:09:28;30.50;1.00
47576;DHT22;33304;52.456;13.328;2023-05-29T15:11:55;30.80;1.00
47576;DHT22;33304;52.456;13.328;2023-05-29T15:14:23;30.80;1.00
47576;DHT22;33304;52.456;13.328;2023-05-29T15:16:50;30.20;1.00
47576;DHT22;33304;52.456;13.328;2023-05-29T15:19:17;30.10;1.00
47576;DHT22;33304;52.456;13.328;2023-05-29T15:21:46;30.00;1.00
47576;DHT22;33304;52.456;13.328;2023-05-29T15:24:13;29.90;1.00
47576;DHT22;33304;52.456;13.328;2023-05-29T15:26:40;29.60;1.00
47576;DHT22;33304;52.456;13.328;2023-05-29T15:29:07;29.40;1.00
47576;DHT22;33304;52.456;13.328;2023-05-29T15:31:35;29.30;1.00
47576;DHT22;33304;52.456;13.328;2023-05-29T15:34:02;29.30;1.00
47576;DHT22;33304;52.456;13.328;2023-05-29T15:36:29;29.60;1.00
47576;DHT22;33304;52.456;13.328;2023-05-29T15:38:58;29.80;1.00
47576;DHT22;33304;52.456;13.328;2023-05-29T15:41:25;30.50;1.00